createdAt,value
2022-09-23T00:01:14.700Z,17.72
2022-09-23T00:03:45.347Z,17.70
2022-09-23T00:06:14.935Z,17.68
2022-09-23T00:08:41.733Z,17.66
2022-09-23T00:11:10.941Z,17.58
2022-09-23T00:13:39.390Z,17.58
2022-09-23T00:16:08.018Z,17.55
2022-09-23T00:18:34.775Z,17.51
2022-09-23T00:21:05.686Z,17.50
2022-09-23T00:23:32.861Z,17.45
2022-09-23T00:26:01.854Z,17.40
2022-09-23T00:28:28.910Z,17.39
2022-09-23T00:30:55.415Z,17.39
2022-09-23T00:33:22.158Z,17.38
2022-09-23T00:35:49.847Z,17.38
2022-09-23T00:38:16.317Z,17.34
2022-09-23T00:40:46.123Z,17.28
2022-09-23T00:43:14.954Z,17.26
2022-09-23T00:45:50.545Z,17.19
2022-09-23T00:48:20.942Z,17.13
2022-09-23T00:50:53.485Z,17.14
2022-09-23T00:53:26.630Z,17.06
2022-09-23T00:55:59.286Z,17.03
2022-09-23T00:58:31.243Z,16.98
2022-09-23T01:01:00.487Z,17.00
2022-09-23T01:03:27.989Z,17.07
2022-09-23T01:05:55.328Z,17.07
2022-09-23T01:08:23.550Z,17.08
2022-09-23T01:11:15.066Z,17.09
2022-09-23T01:14:05.587Z,17.09
2022-09-23T01:16:54.132Z,17.06
2022-09-23T01:19:43.563Z,17.04
2022-09-23T01:22:22.092Z,17.06
2022-09-23T01:24:48.722Z,17.05
2022-09-23T01:27:34.920Z,17.02
2022-09-23T01:30:31.939Z,17.04
2022-09-23T01:33:31.099Z,17.05
2022-09-23T01:36:00.690Z,17.06
2022-09-23T01:38:37.061Z,17.02
2022-09-23T01:41:09.883Z,17.04
2022-09-23T01:44:08.868Z,16.98
2022-09-23T01:46:48.277Z,16.97
2022-09-23T01:49:34.391Z,16.95
2022-09-23T01:52:25.710Z,16.91
2022-09-23T01:54:59.922Z,16.91
2022-09-23T01:57:32.259Z,16.89
2022-09-23T02:00:15.185Z,16.88
2022-09-23T02:02:57.645Z,16.84
2022-09-23T02:05:34.286Z,16.79
2022-09-23T02:08:10.934Z,16.74
2022-09-23T02:10:44.707Z,16.72
2022-09-23T02:13:24.189Z,16.65
2022-09-23T02:15:55.701Z,16.62
2022-09-23T02:18:27.030Z,16.56
2022-09-23T02:20:59.296Z,16.58
2022-09-23T02:23:50.494Z,16.50
2022-09-23T02:26:30.475Z,16.51
2022-09-23T02:29:08.053Z,16.50
2022-09-23T02:31:56.509Z,16.54
2022-09-23T02:34:47.836Z,16.49
2022-09-23T02:37:37.186Z,16.51
2022-09-23T02:40:09.561Z,16.58
2022-09-23T02:43:03.955Z,16.57
2022-09-23T02:45:31.177Z,16.55
2022-09-23T02:48:04.465Z,16.55
2022-09-23T02:50:33.243Z,16.56
2022-09-23T02:53:00.983Z,16.53
2022-09-23T02:55:33.334Z,16.52
2022-09-23T02:58:01.611Z,16.48
2022-09-23T03:00:38.269Z,16.43
2022-09-23T03:03:57.108Z,16.41
2022-09-23T03:06:39.453Z,16.36
2022-09-23T03:09:14.151Z,16.34
2022-09-23T03:11:48.870Z,16.36
2022-09-23T03:14:29.553Z,16.33
2022-09-23T03:17:17.287Z,16.34
2022-09-23T03:19:58.046Z,16.35
2022-09-23T03:22:40.462Z,16.37
2022-09-23T03:25:11.503Z,16.39
2022-09-23T03:27:42.542Z,16.46
2022-09-23T03:30:10.445Z,16.45
2022-09-23T03:32:38.405Z,16.47
2022-09-23T03:35:06.090Z,16.48
2022-09-23T03:37:49.383Z,16.52
2022-09-23T03:40:30.044Z,16.51
2022-09-23T03:42:58.708Z,16.54
2022-09-23T03:45:30.262Z,16.53
2022-09-23T03:47:56.999Z,16.50
2022-09-23T03:50:24.361Z,16.53
2022-09-23T03:52:51.136Z,16.53
2022-09-23T03:55:19.312Z,16.55
2022-09-23T03:57:46.384Z,16.56
2022-09-23T04:00:14.596Z,16.52
2022-09-23T04:02:41.467Z,16.51
2022-09-23T04:05:09.437Z,16.54
2022-09-23T04:07:35.989Z,16.54
2022-09-23T04:10:02.611Z,16.53
2022-09-23T04:12:29.088Z,16.56
2022-09-23T04:14:55.781Z,16.61
2022-09-23T04:17:22.241Z,16.62
2022-09-23T04:19:48.694Z,16.65
2022-09-23T04:22:15.339Z,16.66
2022-09-23T04:24:41.838Z,16.67
2022-09-23T04:27:08.410Z,16.67
2022-09-23T04:29:35.118Z,16.67
2022-09-23T04:32:01.811Z,16.67
2022-09-23T04:34:28.338Z,16.66
2022-09-23T04:36:55.086Z,16.63
2022-09-23T04:39:21.607Z,16.61
2022-09-23T04:41:48.111Z,16.56
2022-09-23T04:44:15.320Z,16.56
2022-09-23T04:46:43.875Z,16.55
2022-09-23T04:49:10.726Z,16.60
2022-09-23T04:51:37.281Z,16.63
2022-09-23T04:54:03.901Z,16.61
2022-09-23T04:56:34.049Z,16.58
2022-09-23T04:59:01.928Z,16.62
2022-09-23T05:01:34.489Z,16.60
2022-09-23T05:04:05.189Z,16.59
2022-09-23T05:06:34.531Z,16.56
2022-09-23T05:09:02.118Z,16.61
2022-09-23T05:11:31.470Z,16.61
2022-09-23T05:13:58.317Z,16.58
2022-09-23T05:16:26.157Z,16.60
2022-09-23T05:18:53.470Z,16.57
2022-09-23T05:21:24.509Z,16.56
2022-09-23T05:23:56.610Z,16.52
2022-09-23T05:26:25.472Z,16.56
2022-09-23T05:28:53.635Z,16.56
2022-09-23T05:31:23.203Z,16.53
2022-09-23T05:33:52.233Z,16.53
2022-09-23T05:36:20.626Z,16.53
2022-09-23T05:38:49.207Z,16.56
2022-09-23T05:41:17.245Z,16.56
2022-09-23T05:43:44.071Z,16.58
2022-09-23T05:46:16.106Z,16.58
2022-09-23T05:48:45.549Z,16.56
2022-09-23T05:51:25.456Z,16.60
2022-09-23T05:53:55.825Z,16.62
2022-09-23T05:56:24.198Z,16.67
2022-09-23T05:58:52.483Z,16.67
2022-09-23T06:01:21.423Z,16.69
2022-09-23T06:03:49.190Z,16.70
2022-09-23T06:06:20.377Z,16.67
2022-09-23T06:08:48.028Z,16.69
2022-09-23T06:11:15.034Z,16.71
2022-09-23T06:13:41.762Z,16.71
2022-09-23T06:16:13.806Z,16.72
2022-09-23T06:18:45.169Z,16.75
2022-09-23T06:21:17.282Z,16.77
2022-09-23T06:23:45.046Z,16.82
2022-09-23T06:26:16.254Z,16.85
2022-09-23T06:28:44.901Z,16.87
2022-09-23T06:31:16.587Z,16.91
2022-09-23T06:33:45.066Z,16.95
2022-09-23T06:36:16.111Z,16.94
2022-09-23T06:38:51.133Z,16.94
2022-09-23T06:41:18.058Z,16.96
2022-09-23T06:43:44.536Z,17.00
2022-09-23T06:46:15.785Z,17.00
2022-09-23T06:48:46.421Z,16.98
2022-09-23T06:51:21.715Z,16.92
2022-09-23T06:53:49.353Z,16.88
2022-09-23T06:56:17.833Z,16.83
2022-09-23T06:58:44.353Z,16.75
2022-09-23T07:01:13.362Z,16.72
2022-09-23T07:03:40.099Z,16.65
2022-09-23T07:06:07.337Z,16.65
2022-09-23T07:08:35.362Z,16.67
2022-09-23T07:11:04.778Z,16.68
2022-09-23T07:13:33.368Z,16.68
2022-09-23T07:16:02.037Z,16.70
2022-09-23T07:18:36.784Z,16.65
2022-09-23T07:21:29.706Z,16.36
2022-09-23T07:23:58.425Z,16.09
2022-09-23T07:26:25.442Z,16.09
2022-09-23T07:28:56.604Z,15.98
2022-09-23T07:31:37.952Z,15.87
2022-09-23T07:34:10.187Z,15.91
2022-09-23T07:36:40.725Z,15.84
2022-09-23T07:39:12.353Z,15.78
2022-09-23T07:41:39.657Z,15.82
2022-09-23T07:44:06.501Z,15.82
2022-09-23T07:46:36.034Z,15.83
2022-09-23T07:49:03.575Z,15.76
2022-09-23T07:51:36.274Z,15.83
2022-09-23T07:54:07.717Z,15.80
2022-09-23T07:56:35.893Z,15.80
2022-09-23T07:59:05.476Z,15.76
2022-09-23T08:01:38.016Z,15.71
2022-09-23T08:04:12.212Z,15.72
2022-09-23T08:06:43.420Z,15.72
2022-09-23T08:09:11.014Z,15.72
2022-09-23T08:11:41.714Z,15.68
2022-09-23T08:14:15.461Z,15.77
2022-09-23T08:16:42.768Z,15.95
2022-09-23T08:19:09.489Z,16.04
2022-09-23T08:21:39.423Z,15.94
2022-09-23T08:24:08.181Z,15.81
2022-09-23T08:26:35.333Z,15.84
2022-09-23T08:29:02.179Z,15.81
2022-09-23T08:31:28.684Z,15.80
2022-09-23T08:33:56.475Z,15.75
2022-09-23T08:36:23.846Z,15.81
2022-09-23T08:38:50.677Z,15.76
2022-09-23T08:41:33.872Z,15.86
2022-09-23T08:44:12.150Z,15.88
2022-09-23T08:46:47.026Z,15.95
2022-09-23T08:49:22.063Z,16.01
2022-09-23T08:51:51.292Z,16.08
2022-09-23T08:54:18.350Z,16.14
2022-09-23T08:56:49.157Z,16.22
2022-09-23T08:59:41.700Z,16.16
2022-09-23T09:02:22.873Z,16.22
2022-09-23T09:05:03.313Z,16.32
2022-09-23T09:07:37.289Z,16.34
2022-09-23T09:10:21.294Z,16.42
2022-09-23T09:12:48.988Z,16.53
2022-09-23T09:15:27.689Z,16.63
2022-09-23T09:18:07.615Z,16.82
2022-09-23T09:20:59.377Z,16.90
2022-09-23T09:23:34.721Z,17.09
2022-09-23T09:26:03.602Z,17.31
2022-09-23T09:28:41.938Z,17.45
2022-09-23T09:31:26.966Z,17.60
2022-09-23T09:33:58.043Z,17.75
2022-09-23T09:36:32.295Z,17.89
2022-09-23T09:38:59.466Z,18.07
2022-09-23T09:41:28.459Z,18.30
2022-09-23T09:43:59.249Z,18.42
2022-09-23T09:46:25.723Z,18.64
2022-09-23T09:49:00.725Z,18.85
2022-09-23T09:51:29.353Z,19.08
2022-09-23T09:54:17.700Z,19.22
2022-09-23T09:56:44.914Z,19.37
2022-09-23T09:59:18.422Z,19.47
2022-09-23T10:01:46.150Z,19.68
2022-09-23T10:04:29.695Z,19.86
2022-09-23T10:07:13.286Z,19.88
2022-09-23T10:09:49.210Z,19.88
2022-09-23T10:12:21.348Z,20.00
2022-09-23T10:14:53.290Z,20.21
2022-09-23T10:17:32.333Z,20.37
2022-09-23T10:20:02.630Z,20.44
2022-09-23T10:22:36.419Z,20.33
2022-09-23T10:25:08.357Z,20.62
2022-09-23T10:27:36.495Z,20.72
2022-09-23T10:30:21.701Z,20.73
2022-09-23T10:32:49.955Z,21.01
2022-09-23T10:35:20.989Z,21.17
2022-09-23T10:37:54.141Z,21.36
2022-09-23T10:40:48.383Z,21.54
2022-09-23T10:43:39.810Z,21.71
2022-09-23T10:46:31.418Z,21.59
2022-09-23T10:49:26.134Z,21.68
2022-09-23T10:52:11.546Z,21.81
2022-09-23T10:55:20.831Z,21.88
2022-09-23T10:58:04.335Z,21.29
2022-09-23T11:00:51.922Z,21.53
2022-09-23T11:03:24.909Z,22.11
2022-09-23T11:06:01.547Z,22.69
2022-09-23T11:08:51.698Z,22.91
2022-09-23T11:11:28.302Z,23.47
2022-09-23T11:14:06.422Z,23.92
2022-09-23T11:16:51.581Z,24.81
2022-09-23T11:19:57.857Z,25.53
2022-09-23T11:22:55.608Z,26.60
2022-09-23T11:25:50.588Z,27.17
2022-09-23T11:28:27.271Z,27.09
2022-09-23T11:31:10.130Z,28.50
2022-09-23T11:34:01.784Z,29.43
2022-09-23T11:36:37.769Z,30.19
2022-09-23T11:39:15.262Z,30.61
2022-09-23T11:41:43.896Z,28.64
2022-09-23T11:44:22.518Z,25.55
2022-09-23T11:47:08.053Z,24.43
2022-09-23T11:49:39.457Z,24.06
2022-09-23T11:52:33.907Z,28.05
2022-09-23T11:55:21.565Z,29.93
2022-09-23T11:57:53.653Z,30.62
2022-09-23T12:00:26.685Z,29.62
2022-09-23T12:03:06.972Z,30.77
2022-09-23T12:05:41.697Z,31.47
2022-09-23T12:08:25.649Z,29.27
2022-09-23T12:11:17.080Z,25.69
2022-09-23T12:13:56.167Z,24.52
2022-09-23T12:16:54.635Z,28.38
2022-09-23T12:20:02.777Z,30.58
2022-09-23T12:22:39.619Z,30.96
2022-09-23T12:25:15.344Z,27.48
2022-09-23T12:27:49.809Z,29.92
2022-09-23T12:30:23.094Z,31.19
2022-09-23T12:32:49.969Z,31.64
2022-09-23T12:35:32.063Z,31.74
2022-09-23T12:38:01.402Z,31.14
2022-09-23T12:40:36.974Z,28.39
2022-09-23T12:43:03.586Z,26.09
2022-09-23T12:45:34.468Z,25.41
2022-09-23T12:48:24.991Z,28.25
2022-09-23T12:51:12.515Z,30.64
2022-09-23T12:53:47.937Z,31.78
2022-09-23T12:56:18.241Z,31.02
2022-09-23T12:58:44.785Z,29.95
2022-09-23T13:01:14.398Z,27.35
2022-09-23T13:04:08.918Z,25.40
2022-09-23T13:06:42.708Z,24.51
2022-09-23T13:09:25.803Z,27.10
2022-09-23T13:11:56.111Z,29.28
2022-09-23T13:14:27.568Z,30.19
2022-09-23T13:16:58.420Z,30.60
2022-09-23T13:19:27.863Z,31.52
2022-09-23T13:21:54.309Z,31.82
2022-09-23T13:24:35.058Z,31.65
2022-09-23T13:27:19.643Z,31.95
2022-09-23T13:30:25.047Z,30.02
2022-09-23T13:33:21.400Z,27.01
2022-09-23T13:35:55.561Z,28.31
2022-09-23T13:38:28.124Z,29.82
2022-09-23T13:40:58.756Z,30.57
2022-09-23T13:43:31.838Z,31.16
2022-09-23T13:46:00.772Z,31.56
2022-09-23T13:48:28.765Z,31.28
2022-09-23T13:50:56.086Z,31.16
2022-09-23T13:53:28.397Z,29.88
2022-09-23T13:56:06.761Z,28.36
2022-09-23T13:58:34.954Z,29.62
2022-09-23T14:01:03.488Z,31.02
2022-09-23T14:03:38.231Z,31.84
2022-09-23T14:06:10.925Z,32.03
2022-09-23T14:08:43.880Z,31.59
2022-09-23T14:11:16.374Z,31.53
2022-09-23T14:13:44.962Z,29.90
2022-09-23T14:16:18.087Z,30.07
2022-09-23T14:18:47.010Z,30.63
2022-09-23T14:21:37.034Z,31.10
2022-09-23T14:24:21.909Z,31.06
2022-09-23T14:27:04.066Z,31.01
2022-09-23T14:29:39.642Z,31.14
2022-09-23T14:32:13.831Z,29.49
2022-09-23T14:34:51.105Z,27.82
2022-09-23T14:37:42.586Z,26.73
2022-09-23T14:40:16.145Z,26.41
2022-09-23T14:42:54.245Z,27.82
2022-09-23T14:45:24.981Z,28.69
2022-09-23T14:47:58.600Z,29.55
2022-09-23T14:50:37.228Z,29.26
2022-09-23T14:53:05.523Z,28.92
2022-09-23T14:55:32.040Z,28.38
2022-09-23T14:58:04.712Z,28.58
2022-09-23T15:00:31.872Z,28.76
2022-09-23T15:03:02.883Z,28.42
2022-09-23T15:05:42.975Z,27.41
2022-09-23T15:08:13.543Z,28.90
2022-09-23T15:10:40.737Z,28.82
2022-09-23T15:13:12.447Z,30.21
2022-09-23T15:15:39.198Z,31.06
2022-09-23T15:18:22.295Z,31.55
2022-09-23T15:20:54.282Z,31.72
2022-09-23T15:23:45.159Z,32.61
2022-09-23T15:26:14.070Z,32.77
2022-09-23T15:28:40.880Z,32.59
2022-09-23T15:31:09.221Z,32.13
2022-09-23T15:33:36.109Z,31.94
2022-09-23T15:36:03.261Z,31.83
2022-09-23T15:38:29.914Z,31.10
2022-09-23T15:40:56.560Z,30.74
2022-09-23T15:43:26.547Z,30.13
2022-09-23T15:45:58.664Z,29.58
2022-09-23T15:48:29.266Z,28.87
2022-09-23T15:50:55.833Z,28.49
2022-09-23T15:53:26.158Z,27.86
2022-09-23T15:55:53.289Z,27.10
2022-09-23T15:58:20.926Z,26.02
2022-09-23T16:00:55.881Z,25.21
2022-09-23T16:03:28.982Z,24.82
2022-09-23T16:06:00.198Z,24.46
2022-09-23T16:08:27.659Z,24.18
2022-09-23T16:10:55.148Z,23.89
2022-09-23T16:13:22.125Z,23.71
2022-09-23T16:15:48.687Z,23.47
2022-09-23T16:18:15.155Z,23.32
2022-09-23T16:20:46.330Z,23.58
2022-09-23T16:23:34.316Z,23.31
2022-09-23T16:26:07.780Z,23.02
2022-09-23T16:28:34.514Z,22.83
2022-09-23T16:31:01.047Z,22.85
2022-09-23T16:33:27.891Z,23.07
2022-09-23T16:35:55.139Z,23.27
2022-09-23T16:38:21.610Z,23.21
2022-09-23T16:40:48.204Z,23.10
2022-09-23T16:43:14.803Z,22.87
2022-09-23T16:45:41.346Z,23.00
2022-09-23T16:48:07.890Z,22.81
2022-09-23T16:50:34.415Z,22.61
2022-09-23T16:53:00.931Z,22.49
2022-09-23T16:55:27.582Z,22.35
2022-09-23T16:57:55.119Z,22.21
2022-09-23T17:00:41.490Z,21.89
2022-09-23T17:03:28.574Z,21.86
2022-09-23T17:05:55.093Z,21.58
2022-09-23T17:08:21.766Z,21.44
2022-09-23T17:10:57.100Z,21.63
2022-09-23T17:13:25.392Z,22.23
2022-09-23T17:15:52.763Z,22.53
2022-09-23T17:18:20.769Z,22.67
2022-09-23T17:21:16.733Z,22.69
2022-09-23T17:23:43.265Z,22.70
2022-09-23T17:26:09.910Z,22.71
2022-09-23T17:28:36.482Z,22.68
2022-09-23T17:31:05.415Z,22.69
2022-09-23T17:33:33.015Z,22.70
2022-09-23T17:36:02.377Z,22.69
2022-09-23T17:38:29.679Z,22.69
2022-09-23T17:40:59.146Z,22.67
2022-09-23T17:43:25.910Z,22.58
2022-09-23T17:45:54.497Z,22.52
2022-09-23T17:48:22.443Z,22.45
2022-09-23T17:51:25.644Z,22.32
2022-09-23T17:53:52.273Z,22.18
2022-09-23T17:56:22.938Z,22.01
2022-09-23T17:58:50.140Z,21.86
2022-09-23T18:01:19.644Z,21.69
2022-09-23T18:03:46.381Z,21.55
2022-09-23T18:06:21.170Z,21.45
2022-09-23T18:08:49.209Z,21.34
2022-09-23T18:11:24.961Z,21.19
2022-09-23T18:13:57.023Z,21.08
2022-09-23T18:16:26.296Z,21.03
2022-09-23T18:18:54.990Z,20.97
2022-09-23T18:21:23.790Z,20.89
2022-09-23T18:23:50.724Z,20.81
2022-09-23T18:26:22.762Z,20.72
2022-09-23T18:28:52.804Z,20.64
2022-09-23T18:31:20.334Z,20.53
2022-09-23T18:33:54.235Z,20.50
2022-09-23T18:36:23.128Z,20.40
2022-09-23T18:38:50.631Z,20.35
2022-09-23T18:41:17.847Z,20.31
2022-09-23T18:43:48.297Z,20.21
2022-09-23T18:46:21.054Z,20.25
2022-09-23T18:49:06.745Z,20.21
2022-09-23T18:51:35.168Z,20.15
2022-09-23T18:54:04.147Z,20.13
2022-09-23T18:56:37.365Z,20.11
2022-09-23T18:59:06.285Z,20.08
2022-09-23T19:01:33.565Z,20.05
2022-09-23T19:04:05.018Z,19.99
2022-09-23T19:06:32.665Z,20.00
2022-09-23T19:08:59.233Z,19.92
2022-09-23T19:11:26.247Z,19.87
2022-09-23T19:13:58.291Z,19.80
2022-09-23T19:16:25.758Z,19.70
2022-09-23T19:18:52.937Z,19.63
2022-09-23T19:21:22.070Z,19.52
2022-09-23T19:23:54.101Z,19.43
2022-09-23T19:26:26.744Z,19.39
2022-09-23T19:28:57.302Z,19.34
2022-09-23T19:31:26.851Z,19.26
2022-09-23T19:33:58.189Z,19.29
2022-09-23T19:36:33.411Z,19.26
2022-09-23T19:39:06.251Z,19.29
2022-09-23T19:41:33.507Z,19.35
2022-09-23T19:44:03.784Z,19.38
2022-09-23T19:46:32.443Z,19.43
2022-09-23T19:49:00.217Z,19.35
2022-09-23T19:51:27.383Z,19.37
2022-09-23T19:53:54.044Z,19.37
2022-09-23T19:56:20.542Z,19.34
2022-09-23T19:58:54.215Z,19.38
2022-09-23T20:01:21.931Z,19.33
2022-09-23T20:03:49.134Z,19.30
2022-09-23T20:06:17.475Z,19.22
2022-09-23T20:08:44.653Z,19.17
2022-09-23T20:11:16.657Z,19.06
2022-09-23T20:13:47.159Z,19.04
2022-09-23T20:16:19.490Z,18.97
2022-09-23T20:18:47.114Z,18.96
2022-09-23T20:21:15.201Z,18.96
2022-09-23T20:23:42.578Z,18.93
2022-09-23T20:26:28.964Z,18.94
2022-09-23T20:28:55.435Z,18.89
2022-09-23T20:31:23.793Z,18.88
2022-09-23T20:33:58.577Z,18.88
2022-09-23T20:36:26.674Z,18.77
2022-09-23T20:38:57.464Z,18.76
2022-09-23T20:41:24.030Z,18.62
2022-09-23T20:44:00.652Z,18.53
2022-09-23T20:46:28.637Z,18.50
2022-09-23T20:48:56.573Z,18.49
2022-09-23T20:51:24.778Z,18.47
2022-09-23T20:53:53.273Z,18.41
2022-09-23T20:56:21.390Z,18.35
2022-09-23T20:58:48.689Z,18.29
2022-09-23T21:01:15.979Z,18.27
2022-09-23T21:03:44.930Z,18.26
2022-09-23T21:06:14.235Z,18.22
2022-09-23T21:08:41.670Z,18.16
2022-09-23T21:11:11.266Z,18.15
2022-09-23T21:13:38.094Z,18.11
2022-09-23T21:16:09.974Z,18.07
2022-09-23T21:18:38.109Z,18.00
2022-09-23T21:21:06.305Z,17.95
2022-09-23T21:23:34.876Z,17.97
2022-09-23T21:26:01.487Z,17.94
2022-09-23T21:28:36.397Z,17.86
2022-09-23T21:31:08.228Z,17.84
2022-09-23T21:33:37.395Z,17.80
2022-09-23T21:36:06.355Z,17.80
2022-09-23T21:38:37.074Z,17.78
2022-09-23T21:41:07.199Z,17.75
2022-09-23T21:43:36.003Z,17.78
2022-09-23T21:46:14.409Z,17.73
2022-09-23T21:48:42.387Z,17.73
2022-09-23T21:51:12.959Z,17.66
2022-09-23T21:53:40.998Z,17.71
2022-09-23T21:56:18.093Z,17.69
2022-09-23T21:58:47.005Z,17.72
2022-09-23T22:01:18.186Z,17.65
2022-09-23T22:03:49.774Z,17.60
2022-09-23T22:06:21.286Z,17.55
2022-09-23T22:08:54.107Z,17.48
2022-09-23T22:11:41.054Z,17.49
2022-09-23T22:14:10.767Z,17.40
2022-09-23T22:16:37.357Z,17.38
2022-09-23T22:19:07.523Z,17.33
2022-09-23T22:21:36.743Z,17.29
2022-09-23T22:24:04.850Z,17.20
2022-09-23T22:26:33.849Z,17.15
2022-09-23T22:29:18.992Z,17.16
2022-09-23T22:32:03.747Z,17.09
2022-09-23T22:34:49.053Z,17.00
2022-09-23T22:37:19.983Z,16.95
2022-09-23T22:39:46.600Z,16.95
2022-09-23T22:42:13.427Z,16.94
2022-09-23T22:44:39.950Z,16.88
2022-09-23T22:47:07.091Z,16.84
2022-09-23T22:49:33.726Z,16.79
2022-09-23T22:52:02.342Z,16.77
2022-09-23T22:54:33.364Z,16.70
2022-09-23T22:57:03.200Z,16.64
2022-09-23T22:59:30.091Z,16.65
2022-09-23T23:01:57.222Z,16.63
2022-09-23T23:04:23.807Z,16.60
2022-09-23T23:06:50.288Z,16.63
2022-09-23T23:09:18.474Z,16.64
2022-09-23T23:11:45.601Z,16.56
2022-09-23T23:14:14.437Z,16.58
2022-09-23T23:16:40.987Z,16.57
2022-09-23T23:19:14.151Z,16.57
2022-09-23T23:21:44.502Z,16.55
2022-09-23T23:24:16.420Z,16.52
2022-09-23T23:26:43.050Z,16.54
2022-09-23T23:29:11.771Z,16.51
2022-09-23T23:31:38.764Z,16.47
2022-09-23T23:34:07.162Z,16.45
2022-09-23T23:36:34.147Z,16.41
2022-09-23T23:39:00.644Z,16.37
2022-09-23T23:41:28.365Z,16.37
2022-09-23T23:43:58.195Z,16.31
2022-09-23T23:46:26.578Z,16.26
2022-09-23T23:48:54.169Z,16.25
2022-09-23T23:51:21.498Z,16.19
2022-09-23T23:53:48.309Z,16.13
2022-09-23T23:56:17.135Z,16.09
2022-09-23T23:58:44.462Z,16.09
